sensor_id;sensor_type;location;lat;lon;timestamp;temperature;humidity
47434;SHT31;33184;48.774;8.918;2023-02-23T00:03:58;7.70;81.37
47434;SHT31;33184;48.774;8.918;2023-02-23T00:09:19;7.69;81.83
47434;SHT31;33184;48.774;8.918;2023-02-23T00:14:43;7.65;82.06
47434;SHT31;33184;48.774;8.918;2023-02-23T00:20:06;7.58;82.34
47434;SHT31;33184;48.774;8.918;2023-02-23T00:25:28;7.48;82.69
47434;SHT31;33184;48.774;8.918;2023-02-23T00:30:51;7.36;83.10
47434;SHT31;33184;48.774;8.918;2023-02-23T00:36:13;7.34;83.43
47434;SHT31;33184;48.774;8.918;2023-02-23T00:41:34;7.39;83.59
47434;SHT31;33184;48.774;8.918;2023-02-23T00:46:54;7.51;84.01
47434;SHT31;33184;48.774;8.918;2023-02-23T00:52:15;7.48;83.92
47434;SHT31;33184;48.774;8.918;2023-02-23T00:57:36;7.49;83.87
47434;SHT31;33184;48.774;8.918;2023-02-23T01:02:56;7.45;83.88
47434;SHT31;33184;48.774;8.918;2023-02-23T01:08:17;7.42;84.11
47434;SHT31;33184;48.774;8.918;2023-02-23T01:13:40;7.44;84.20
47434;SHT31;33184;48.774;8.918;2023-02-23T01:19:03;7.48;84.36
47434;SHT31;33184;48.774;8.918;2023-02-23T01:24:24;7.46;84.49
47434;SHT31;33184;48.774;8.918;2023-02-23T01:29:45;7.48;84.56
47434;SHT31;33184;48.774;8.918;2023-02-23T01:35:09;7.52;84.59
47434;SHT31;33184;48.774;8.918;2023-02-23T01:40:30;7.51;84.90
47434;SHT31;33184;48.774;8.918;2023-02-23T01:45:55;7.51;84.98
47434;SHT31;33184;48.774;8.918;2023-02-23T01:51:19;7.48;84.94
47434;SHT31;33184;48.774;8.918;2023-02-23T01:56:45;7.51;85.46
47434;SHT31;33184;48.774;8.918;2023-02-23T02:02:10;7.49;85.56
47434;SHT31;33184;48.774;8.918;2023-02-23T02:07:33;7.51;85.65
47434;SHT31;33184;48.774;8.918;2023-02-23T02:12:58;7.54;85.80
47434;SHT31;33184;48.774;8.918;2023-02-23T02:24:16;7.54;85.94
47434;SHT31;33184;48.774;8.918;2023-02-23T02:41:17;7.42;86.44
47434;SHT31;33184;48.774;8.918;2023-02-23T02:46:41;7.44;86.67
47434;SHT31;33184;48.774;8.918;2023-02-23T02:57:32;7.44;87.19
47434;SHT31;33184;48.774;8.918;2023-02-23T03:02:53;7.52;87.20
47434;SHT31;33184;48.774;8.918;2023-02-23T03:08:39;7.52;87.28
47434;SHT31;33184;48.774;8.918;2023-02-23T03:14:54;7.56;87.47
47434;SHT31;33184;48.774;8.918;2023-02-23T03:26:20;7.59;87.28
47434;SHT31;33184;48.774;8.918;2023-02-23T03:32:25;7.55;87.44
47434;SHT31;33184;48.774;8.918;2023-02-23T03:38:12;7.55;87.71
47434;SHT31;33184;48.774;8.918;2023-02-23T03:44:02;7.55;87.78
47434;SHT31;33184;48.774;8.918;2023-02-23T03:49:44;7.61;87.70
47434;SHT31;33184;48.774;8.918;2023-02-23T03:55:29;7.59;87.93
47434;SHT31;33184;48.774;8.918;2023-02-23T04:01:10;7.56;87.93
47434;SHT31;33184;48.774;8.918;2023-02-23T04:06:54;7.42;88.04
47434;SHT31;33184;48.774;8.918;2023-02-23T04:13:05;7.38;88.08
47434;SHT31;33184;48.774;8.918;2023-02-23T04:18:37;7.41;88.11
47434;SHT31;33184;48.774;8.918;2023-02-23T04:23:58;7.41;88.13
47434;SHT31;33184;48.774;8.918;2023-02-23T04:29:19;7.45;88.19
47434;SHT31;33184;48.774;8.918;2023-02-23T04:34:40;7.49;87.95
47434;SHT31;33184;48.774;8.918;2023-02-23T04:40:00;7.51;87.78
47434;SHT31;33184;48.774;8.918;2023-02-23T04:45:22;7.48;88.00
47434;SHT31;33184;48.774;8.918;2023-02-23T04:50:43;7.44;88.27
47434;SHT31;33184;48.774;8.918;2023-02-23T04:56:03;7.48;88.55
47434;SHT31;33184;48.774;8.918;2023-02-23T05:01:24;7.48;88.76
47434;SHT31;33184;48.774;8.918;2023-02-23T05:06:44;7.48;88.77
47434;SHT31;33184;48.774;8.918;2023-02-23T05:12:05;7.45;88.66
47434;SHT31;33184;48.774;8.918;2023-02-23T05:17:26;7.44;88.62
47434;SHT31;33184;48.774;8.918;2023-02-23T05:22:46;7.39;88.43
47434;SHT31;33184;48.774;8.918;2023-02-23T05:28:07;7.36;88.37
47434;SHT31;33184;48.774;8.918;2023-02-23T05:33:29;7.39;88.39
47434;SHT31;33184;48.774;8.918;2023-02-23T05:38:49;7.48;88.85
47434;SHT31;33184;48.774;8.918;2023-02-23T05:44:10;7.58;89.28
47434;SHT31;33184;48.774;8.918;2023-02-23T05:49:31;7.55;89.12
47434;SHT31;33184;48.774;8.918;2023-02-23T05:54:51;7.49;89.03
47434;SHT31;33184;48.774;8.918;2023-02-23T06:00:12;7.39;88.94
47434;SHT31;33184;48.774;8.918;2023-02-23T06:05:32;7.36;88.85
47434;SHT31;33184;48.774;8.918;2023-02-23T06:10:53;7.35;88.81
47434;SHT31;33184;48.774;8.918;2023-02-23T06:16:14;7.31;89.01
47434;SHT31;33184;48.774;8.918;2023-02-23T06:21:34;7.27;88.90
47434;SHT31;33184;48.774;8.918;2023-02-23T06:26:55;7.30;89.12
47434;SHT31;33184;48.774;8.918;2023-02-23T06:32:15;7.34;89.16
47434;SHT31;33184;48.774;8.918;2023-02-23T06:37:41;7.32;89.25
47434;SHT31;33184;48.774;8.918;2023-02-23T06:43:02;7.35;89.49
47434;SHT31;33184;48.774;8.918;2023-02-23T06:48:24;7.34;89.72
47434;SHT31;33184;48.774;8.918;2023-02-23T06:53:44;7.41;89.86
47434;SHT31;33184;48.774;8.918;2023-02-23T06:59:05;7.38;89.99
47434;SHT31;33184;48.774;8.918;2023-02-23T07:04:26;7.35;90.22
47434;SHT31;33184;48.774;8.918;2023-02-23T07:09:47;7.39;90.28
47434;SHT31;33184;48.774;8.918;2023-02-23T07:15:08;7.44;90.29
47434;SHT31;33184;48.774;8.918;2023-02-23T07:20:29;7.55;90.90
47434;SHT31;33184;48.774;8.918;2023-02-23T07:25:52;7.59;90.98
47434;SHT31;33184;48.774;8.918;2023-02-23T07:31:13;7.66;91.07
47434;SHT31;33184;48.774;8.918;2023-02-23T07:36:34;7.81;91.10
47434;SHT31;33184;48.774;8.918;2023-02-23T07:41:54;7.90;90.98
47434;SHT31;33184;48.774;8.918;2023-02-23T07:47:15;7.90;90.71
47434;SHT31;33184;48.774;8.918;2023-02-23T07:52:37;7.92;90.50
47434;SHT31;33184;48.774;8.918;2023-02-23T07:57:58;8.00;90.52
47434;SHT31;33184;48.774;8.918;2023-02-23T08:03:18;8.10;90.35
47434;SHT31;33184;48.774;8.918;2023-02-23T08:08:39;8.17;90.16
47434;SHT31;33184;48.774;8.918;2023-02-23T08:13:59;8.31;90.13
47434;SHT31;33184;48.774;8.918;2023-02-23T08:19:20;8.45;89.89
47434;SHT31;33184;48.774;8.918;2023-02-23T08:24:43;8.54;89.82
47434;SHT31;33184;48.774;8.918;2023-02-23T08:30:04;8.64;89.96
47434;SHT31;33184;48.774;8.918;2023-02-23T08:35:26;8.62;90.04
47434;SHT31;33184;48.774;8.918;2023-02-23T08:40:46;8.58;89.99
47434;SHT31;33184;48.774;8.918;2023-02-23T08:46:07;8.62;89.88
47434;SHT31;33184;48.774;8.918;2023-02-23T08:51:28;8.65;89.59
47434;SHT31;33184;48.774;8.918;2023-02-23T08:56:48;8.68;89.08
47434;SHT31;33184;48.774;8.918;2023-02-23T09:02:11;8.64;88.77
47434;SHT31;33184;48.774;8.918;2023-02-23T09:07:32;8.61;88.96
47434;SHT31;33184;48.774;8.918;2023-02-23T09:12:53;8.64;88.77
47434;SHT31;33184;48.774;8.918;2023-02-23T09:18:14;8.71;88.49
47434;SHT31;33184;48.774;8.918;2023-02-23T09:23:36;8.84;88.20
47434;SHT31;33184;48.774;8.918;2023-02-23T09:28:59;8.98;87.95
47434;SHT31;33184;48.774;8.918;2023-02-23T09:34:20;9.22;87.91
47434;SHT31;33184;48.774;8.918;2023-02-23T09:39:42;9.37;87.66
47434;SHT31;33184;48.774;8.918;2023-02-23T09:50:42;9.57;87.37
47434;SHT31;33184;48.774;8.918;2023-02-23T09:56:34;9.86;87.12
47434;SHT31;33184;48.774;8.918;2023-02-23T10:08:00;10.46;86.29
47434;SHT31;33184;48.774;8.918;2023-02-23T10:13:34;10.62;85.31
47434;SHT31;33184;48.774;8.918;2023-02-23T10:19:14;10.84;84.96
47434;SHT31;33184;48.774;8.918;2023-02-23T10:24:41;11.10;83.89
47434;SHT31;33184;48.774;8.918;2023-02-23T10:30:03;11.28;81.71
47434;SHT31;33184;48.774;8.918;2023-02-23T10:35:32;11.44;79.20
47434;SHT31;33184;48.774;8.918;2023-02-23T10:40:54;11.54;78.35
47434;SHT31;33184;48.774;8.918;2023-02-23T10:46:21;11.61;76.89
47434;SHT31;33184;48.774;8.918;2023-02-23T10:51:44;11.72;76.04
47434;SHT31;33184;48.774;8.918;2023-02-23T10:57:06;11.69;73.49
47434;SHT31;33184;48.774;8.918;2023-02-23T11:02:29;11.83;74.41
47434;SHT31;33184;48.774;8.918;2023-02-23T11:07:50;11.88;74.57
47434;SHT31;33184;48.774;8.918;2023-02-23T11:13:37;12.02;74.37
47434;SHT31;33184;48.774;8.918;2023-02-23T11:19:01;12.23;73.41
47434;SHT31;33184;48.774;8.918;2023-02-23T11:24:32;12.42;73.25
47434;SHT31;33184;48.774;8.918;2023-02-23T11:29:55;12.36;72.76
47434;SHT31;33184;48.774;8.918;2023-02-23T11:40:40;12.93;73.10
47434;SHT31;33184;48.774;8.918;2023-02-23T11:46:02;13.07;71.08
47434;SHT31;33184;48.774;8.918;2023-02-23T11:51:26;13.58;69.69
47434;SHT31;33184;48.774;8.918;2023-02-23T11:56:48;13.63;68.37
47434;SHT31;33184;48.774;8.918;2023-02-23T12:07:52;13.35;68.60
47434;SHT31;33184;48.774;8.918;2023-02-23T12:24:22;13.89;63.98
47434;SHT31;33184;48.774;8.918;2023-02-23T12:30:02;13.50;63.51
47434;SHT31;33184;48.774;8.918;2023-02-23T12:35:36;13.43;64.33
47434;SHT31;33184;48.774;8.918;2023-02-23T12:41:11;13.16;64.15
47434;SHT31;33184;48.774;8.918;2023-02-23T12:46:41;13.04;65.54
47434;SHT31;33184;48.774;8.918;2023-02-23T12:52:20;12.70;67.81
47434;SHT31;33184;48.774;8.918;2023-02-23T12:58:05;12.43;70.86
47434;SHT31;33184;48.774;8.918;2023-02-23T13:03:39;12.25;72.12
47434;SHT31;33184;48.774;8.918;2023-02-23T13:09:36;12.03;73.82
47434;SHT31;33184;48.774;8.918;2023-02-23T13:20:31;12.00;74.29
47434;SHT31;33184;48.774;8.918;2023-02-23T13:32:04;11.86;75.01
47434;SHT31;33184;48.774;8.918;2023-02-23T13:48:42;11.50;75.38
47434;SHT31;33184;48.774;8.918;2023-02-23T13:59:43;11.43;76.56
47434;SHT31;33184;48.774;8.918;2023-02-23T14:10:43;11.25;80.39
47434;SHT31;33184;48.774;8.918;2023-02-23T14:16:10;11.23;81.15
47434;SHT31;33184;48.774;8.918;2023-02-23T14:22:15;11.10;80.99
47434;SHT31;33184;48.774;8.918;2023-02-23T14:27:43;11.06;81.27
47434;SHT31;33184;48.774;8.918;2023-02-23T14:39:22;10.89;83.87
47434;SHT31;33184;48.774;8.918;2023-02-23T14:44:46;10.99;84.00
47434;SHT31;33184;48.774;8.918;2023-02-23T14:50:16;10.96;84.41
47434;SHT31;33184;48.774;8.918;2023-02-23T14:55:41;10.89;83.74
47434;SHT31;33184;48.774;8.918;2023-02-23T15:01:04;10.65;82.89
47434;SHT31;33184;48.774;8.918;2023-02-23T15:06:25;10.68;82.80
47434;SHT31;33184;48.774;8.918;2023-02-23T15:11:48;10.87;82.04
47434;SHT31;33184;48.774;8.918;2023-02-23T15:17:19;10.80;81.96
47434;SHT31;33184;48.774;8.918;2023-02-23T15:22:43;10.87;81.46
47434;SHT31;33184;48.774;8.918;2023-02-23T15:28:24;10.83;81.04
47434;SHT31;33184;48.774;8.918;2023-02-23T15:33:46;10.82;81.71
47434;SHT31;33184;48.774;8.918;2023-02-23T15:39:12;10.72;81.22
47434;SHT31;33184;48.774;8.918;2023-02-23T15:44:35;10.61;80.54
47434;SHT31;33184;48.774;8.918;2023-02-23T15:50:28;10.62;81.05
47434;SHT31;33184;48.774;8.918;2023-02-23T15:55:54;10.58;80.81
47434;SHT31;33184;48.774;8.918;2023-02-23T16:01:27;10.50;81.16
47434;SHT31;33184;48.774;8.918;2023-02-23T16:06:53;10.50;81.44
47434;SHT31;33184;48.774;8.918;2023-02-23T16:12:23;10.53;81.84
47434;SHT31;33184;48.774;8.918;2023-02-23T16:17:46;10.46;82.19
47434;SHT31;33184;48.774;8.918;2023-02-23T16:28:42;10.42;82.59
47434;SHT31;33184;48.774;8.918;2023-02-23T16:39:47;10.41;83.38
47434;SHT31;33184;48.774;8.918;2023-02-23T16:45:13;10.36;84.10
47434;SHT31;33184;48.774;8.918;2023-02-23T16:50:33;10.18;84.78
47434;SHT31;33184;48.774;8.918;2023-02-23T16:55:55;10.14;85.38
47434;SHT31;33184;48.774;8.918;2023-02-23T17:01:20;10.14;85.64
47434;SHT31;33184;48.774;8.918;2023-02-23T17:06:41;10.18;85.71
47434;SHT31;33184;48.774;8.918;2023-02-23T17:12:02;10.22;85.93
47434;SHT31;33184;48.774;8.918;2023-02-23T17:17:23;10.14;86.28
47434;SHT31;33184;48.774;8.918;2023-02-23T17:22:44;9.98;86.48
47434;SHT31;33184;48.774;8.918;2023-02-23T17:28:04;10.04;86.83
47434;SHT31;33184;48.774;8.918;2023-02-23T17:33:25;10.04;86.79
47434;SHT31;33184;48.774;8.918;2023-02-23T17:38:47;10.01;86.84
47434;SHT31;33184;48.774;8.918;2023-02-23T17:44:08;9.95;87.20
47434;SHT31;33184;48.774;8.918;2023-02-23T17:49:28;9.90;87.32
47434;SHT31;33184;48.774;8.918;2023-02-23T17:54:49;9.90;87.41
47434;SHT31;33184;48.774;8.918;2023-02-23T18:00:11;9.81;87.48
47434;SHT31;33184;48.774;8.918;2023-02-23T18:05:32;9.75;87.76
47434;SHT31;33184;48.774;8.918;2023-02-23T18:10:54;9.77;87.84
47434;SHT31;33184;48.774;8.918;2023-02-23T18:16:15;9.77;87.96
47434;SHT31;33184;48.774;8.918;2023-02-23T18:21:36;9.61;88.01
47434;SHT31;33184;48.774;8.918;2023-02-23T18:27:00;9.47;88.45
47434;SHT31;33184;48.774;8.918;2023-02-23T18:32:21;9.35;89.53
47434;SHT31;33184;48.774;8.918;2023-02-23T18:37:41;9.43;89.91
47434;SHT31;33184;48.774;8.918;2023-02-23T18:43:02;9.50;90.17
47434;SHT31;33184;48.774;8.918;2023-02-23T18:48:23;9.42;90.31
47434;SHT31;33184;48.774;8.918;2023-02-23T18:53:43;9.33;90.41
47434;SHT31;33184;48.774;8.918;2023-02-23T18:59:05;9.42;90.72
47434;SHT31;33184;48.774;8.918;2023-02-23T19:04:27;9.46;90.57
47434;SHT31;33184;48.774;8.918;2023-02-23T19:09:47;9.32;90.18
47434;SHT31;33184;48.774;8.918;2023-02-23T19:15:08;9.23;90.57
47434;SHT31;33184;48.774;8.918;2023-02-23T19:20:29;9.20;90.54
47434;SHT31;33184;48.774;8.918;2023-02-23T19:25:54;9.26;90.83
47434;SHT31;33184;48.774;8.918;2023-02-23T19:31:17;9.35;90.76
47434;SHT31;33184;48.774;8.918;2023-02-23T19:36:39;9.29;90.32
47434;SHT31;33184;48.774;8.918;2023-02-23T19:42:00;9.12;90.09
47434;SHT31;33184;48.774;8.918;2023-02-23T19:47:21;9.05;90.45
47434;SHT31;33184;48.774;8.918;2023-02-23T19:52:45;8.91;90.49
47434;SHT31;33184;48.774;8.918;2023-02-23T19:58:06;8.91;91.02
47434;SHT31;33184;48.774;8.918;2023-02-23T20:03:27;8.95;91.10
47434;SHT31;33184;48.774;8.918;2023-02-23T20:08:48;8.96;91.00
47434;SHT31;33184;48.774;8.918;2023-02-23T20:14:09;8.98;91.06
47434;SHT31;33184;48.774;8.918;2023-02-23T20:19:31;8.84;91.14
47434;SHT31;33184;48.774;8.918;2023-02-23T20:24:52;8.72;91.44
47434;SHT31;33184;48.774;8.918;2023-02-23T20:30:13;8.68;91.76
47434;SHT31;33184;48.774;8.918;2023-02-23T20:35:33;8.57;92.63
47434;SHT31;33184;48.774;8.918;2023-02-23T20:40:54;8.51;92.48
47434;SHT31;33184;48.774;8.918;2023-02-23T20:46:15;8.52;92.56
47434;SHT31;33184;48.774;8.918;2023-02-23T20:51:43;8.60;92.57
47434;SHT31;33184;48.774;8.918;2023-02-23T20:57:03;8.62;92.49
47434;SHT31;33184;48.774;8.918;2023-02-23T21:02:27;8.68;92.32
47434;SHT31;33184;48.774;8.918;2023-02-23T21:07:48;8.62;92.10
47434;SHT31;33184;48.774;8.918;2023-02-23T21:13:10;8.57;92.08
47434;SHT31;33184;48.774;8.918;2023-02-23T21:18:30;8.57;92.29
47434;SHT31;33184;48.774;8.918;2023-02-23T21:23:51;8.62;92.25
47434;SHT31;33184;48.774;8.918;2023-02-23T21:29:11;8.61;92.15
47434;SHT31;33184;48.774;8.918;2023-02-23T21:34:33;8.67;92.09
47434;SHT31;33184;48.774;8.918;2023-02-23T21:39:54;8.71;91.85
47434;SHT31;33184;48.774;8.918;2023-02-23T21:45:15;8.57;91.53
47434;SHT31;33184;48.774;8.918;2023-02-23T21:50:36;8.52;91.55
47434;SHT31;33184;48.774;8.918;2023-02-23T21:55:57;8.51;91.48
47434;SHT31;33184;48.774;8.918;2023-02-23T22:01:20;8.48;91.51
47434;SHT31;33184;48.774;8.918;2023-02-23T22:06:43;8.48;91.56
47434;SHT31;33184;48.774;8.918;2023-02-23T22:12:04;8.48;91.56
47434;SHT31;33184;48.774;8.918;2023-02-23T22:17:26;8.40;91.43
47434;SHT31;33184;48.774;8.918;2023-02-23T22:22:47;8.31;91.71
47434;SHT31;33184;48.774;8.918;2023-02-23T22:28:09;8.21;91.80
47434;SHT31;33184;48.774;8.918;2023-02-23T22:33:30;8.21;92.07
47434;SHT31;33184;48.774;8.918;2023-02-23T22:38:50;8.31;92.23
47434;SHT31;33184;48.774;8.918;2023-02-23T22:44:17;8.33;92.22
47434;SHT31;33184;48.774;8.918;2023-02-23T22:49:38;8.27;92.20
47434;SHT31;33184;48.774;8.918;2023-02-23T22:54:59;8.31;92.23
47434;SHT31;33184;48.774;8.918;2023-02-23T23:00:19;8.30;92.26
47434;SHT31;33184;48.774;8.918;2023-02-23T23:05:47;8.33;92.16
47434;SHT31;33184;48.774;8.918;2023-02-23T23:11:22;8.31;92.31
47434;SHT31;33184;48.774;8.918;2023-02-23T23:16:46;8.30;92.42
47434;SHT31;33184;48.774;8.918;2023-02-23T23:22:06;8.34;92.44
47434;SHT31;33184;48.774;8.918;2023-02-23T23:27:33;8.34;92.53
47434;SHT31;33184;48.774;8.918;2023-02-23T23:32:56;8.31;92.50
47434;SHT31;33184;48.774;8.918;2023-02-23T23:38:17;8.29;92.42
47434;SHT31;33184;48.774;8.918;2023-02-23T23:43:44;8.19;92.45
47434;SHT31;33184;48.774;8.918;2023-02-23T23:49:14;8.10;92.50
47434;SHT31;33184;48.774;8.918;2023-02-23T23:54:36;8.14;92.81
47434;SHT31;33184;48.774;8.918;2023-02-23T23:59:58;8.12;92.88
